createdAt,value
2023-11-24T00:00:25.825Z,46.98
2023-11-24T00:01:25.796Z,46.88
2023-11-24T00:02:25.788Z,46.78
2023-11-24T00:03:25.878Z,46.78
2023-11-24T00:04:25.811Z,46.78
2023-11-24T00:05:25.743Z,46.68
2023-11-24T00:06:25.738Z,46.78
2023-11-24T00:07:25.706Z,46.88
2023-11-24T00:08:25.715Z,46.78
2023-11-24T00:09:25.695Z,46.78
2023-11-24T00:10:25.673Z,46.78
2023-11-24T00:11:25.700Z,46.78
2023-11-24T00:12:25.676Z,46.58
2023-11-24T00:13:25.649Z,46.58
2023-11-24T00:14:25.635Z,46.68
2023-11-24T00:15:25.644Z,46.58
2023-11-24T00:16:25.738Z,46.60
2023-11-24T00:17:25.755Z,46.68
2023-11-24T00:18:25.611Z,46.58
2023-11-24T00:19:25.581Z,46.50
2023-11-24T00:20:25.579Z,46.48
2023-11-24T00:21:25.578Z,46.40
2023-11-24T00:22:25.558Z,46.50
2023-11-24T00:23:25.531Z,46.50
2023-11-24T00:24:25.546Z,46.40
2023-11-24T00:25:25.511Z,46.40
2023-11-24T00:26:25.503Z,46.50
2023-11-24T00:27:25.540Z,46.40
2023-11-24T00:28:25.472Z,46.40
2023-11-24T00:29:25.469Z,46.30
2023-11-24T00:30:25.475Z,46.30
2023-11-24T00:31:25.488Z,46.20
2023-11-24T00:32:25.437Z,46.30
2023-11-24T00:33:25.504Z,46.30
2023-11-24T00:34:25.523Z,46.20
2023-11-24T00:35:25.417Z,46.20
2023-11-24T00:36:25.452Z,46.10
2023-11-24T00:37:25.383Z,46.20
2023-11-24T00:38:25.364Z,46.10
2023-11-24T00:39:25.383Z,46.02
2023-11-24T00:40:25.350Z,46.10
2023-11-24T00:41:25.374Z,46.20
2023-11-24T00:42:25.352Z,46.22
2023-11-24T00:43:25.316Z,46.00
2023-11-24T00:44:25.301Z,46.02
2023-11-24T00:45:25.348Z,46.00
2023-11-24T00:46:25.308Z,45.92
2023-11-24T00:47:25.331Z,45.92
2023-11-24T00:48:25.300Z,45.92
2023-11-24T00:49:25.250Z,46.02
2023-11-24T00:50:25.260Z,46.00
2023-11-24T00:51:25.243Z,46.00
2023-11-24T00:52:25.211Z,46.02
2023-11-24T00:53:25.218Z,45.82
2023-11-24T00:54:25.213Z,46.02
2023-11-24T00:55:25.211Z,46.10
2023-11-24T00:56:25.176Z,46.12
2023-11-24T00:57:25.201Z,46.12
2023-11-24T00:58:25.150Z,46.00
2023-11-24T00:59:25.153Z,46.12
2023-11-24T01:00:25.176Z,46.22
2023-11-24T01:01:25.146Z,46.12
2023-11-24T01:02:25.218Z,46.12
2023-11-24T01:03:25.163Z,46.22
2023-11-24T01:04:25.159Z,46.02
2023-11-24T01:05:25.073Z,46.02
2023-11-24T01:06:25.093Z,46.02
2023-11-24T01:07:25.050Z,45.92
2023-11-24T01:08:25.051Z,46.02
2023-11-24T01:09:25.084Z,46.02
2023-11-24T01:10:25.016Z,46.02
2023-11-24T01:11:25.016Z,46.02
2023-11-24T01:12:25.034Z,46.02
2023-11-24T01:13:25.017Z,46.02
2023-11-24T01:14:24.988Z,45.92
2023-11-24T01:15:25.000Z,45.92
2023-11-24T01:16:24.966Z,45.82
2023-11-24T01:17:24.972Z,45.82
2023-11-24T01:18:24.981Z,45.84
2023-11-24T01:19:24.921Z,45.82
2023-11-24T01:20:24.909Z,46.02
2023-11-24T01:21:24.925Z,45.92
2023-11-24T01:22:24.900Z,45.92
2023-11-24T01:23:24.903Z,46.14
2023-11-24T01:24:24.903Z,46.12
2023-11-24T01:25:24.848Z,46.12
2023-11-24T01:26:24.851Z,46.02
2023-11-24T01:27:24.863Z,46.04
2023-11-24T01:28:24.820Z,45.82
2023-11-24T01:29:24.805Z,45.94
2023-11-24T01:30:24.822Z,46.14
2023-11-24T01:31:24.787Z,46.04
2023-11-24T01:32:24.778Z,46.14
2023-11-24T01:33:24.955Z,45.94
2023-11-24T01:34:24.817Z,45.92
2023-11-24T01:35:24.753Z,45.94
2023-11-24T01:36:24.789Z,46.04
2023-11-24T01:37:24.763Z,46.22
2023-11-24T01:38:24.868Z,46.25
2023-11-24T01:39:24.704Z,46.14
2023-11-24T01:40:24.685Z,46.04
2023-11-24T01:41:24.716Z,46.04
2023-11-24T01:42:24.713Z,46.04
2023-11-24T01:43:24.681Z,45.94
2023-11-24T01:44:24.648Z,45.84
2023-11-24T01:45:24.683Z,46.04
2023-11-24T01:46:24.815Z,45.84
2023-11-24T01:47:24.639Z,45.84
2023-11-24T01:48:24.612Z,46.04
2023-11-24T01:49:24.598Z,45.94
2023-11-24T01:50:24.586Z,45.94
2023-11-24T01:51:24.608Z,45.94
2023-11-24T01:52:24.552Z,45.74
2023-11-24T01:53:24.556Z,45.74
2023-11-24T01:54:24.584Z,45.74
2023-11-24T01:55:24.586Z,45.84
2023-11-24T01:56:24.520Z,45.94
2023-11-24T01:57:24.539Z,45.94
2023-11-24T01:58:24.481Z,45.74
2023-11-24T01:59:24.476Z,45.64
2023-11-24T02:00:24.530Z,45.64
2023-11-24T02:01:24.478Z,45.74
2023-11-24T02:02:24.545Z,45.74
2023-11-24T02:03:24.501Z,45.84
2023-11-24T02:04:24.538Z,45.94
2023-11-24T02:05:24.442Z,45.84
2023-11-24T02:06:24.472Z,45.84
2023-11-24T02:07:24.423Z,45.94
2023-11-24T02:08:24.375Z,45.84
2023-11-24T02:09:24.414Z,45.94
2023-11-24T02:10:24.365Z,45.94
2023-11-24T02:11:24.345Z,46.14
2023-11-24T02:12:24.344Z,46.14
2023-11-24T02:13:24.346Z,46.14
2023-11-24T02:14:24.342Z,46.14
2023-11-24T02:15:24.337Z,46.14
2023-11-24T02:16:24.360Z,46.25
2023-11-24T02:17:24.298Z,46.34
2023-11-24T02:18:24.318Z,46.14
2023-11-24T02:19:24.265Z,46.14
2023-11-24T02:20:24.256Z,46.04
2023-11-24T02:21:24.309Z,46.04
2023-11-24T02:22:24.221Z,45.84
2023-11-24T02:23:24.235Z,46.25
2023-11-24T02:24:24.221Z,46.34
2023-11-24T02:25:24.193Z,46.34
2023-11-24T02:26:24.187Z,46.34
2023-11-24T02:27:24.200Z,46.25
2023-11-24T02:28:24.208Z,46.25
2023-11-24T02:29:24.156Z,46.25
2023-11-24T02:30:24.155Z,46.25
2023-11-24T02:31:24.249Z,46.14
2023-11-24T02:32:24.112Z,46.34
2023-11-24T02:33:24.267Z,46.34
2023-11-24T02:34:24.129Z,46.25
2023-11-24T02:35:24.087Z,46.04
2023-11-24T02:36:24.106Z,46.14
2023-11-24T02:37:24.079Z,46.14
2023-11-24T02:38:24.057Z,46.25
2023-11-24T02:39:24.081Z,46.25
2023-11-24T02:40:24.033Z,46.14
2023-11-24T02:41:24.023Z,46.25
2023-11-24T02:42:24.071Z,46.34
2023-11-24T02:43:24.000Z,46.34
2023-11-24T02:44:23.986Z,46.34
2023-11-24T02:45:24.026Z,46.14
2023-11-24T02:46:23.970Z,46.25
2023-11-24T02:47:23.975Z,46.34
2023-11-24T02:48:24.142Z,46.34
2023-11-24T02:49:24.013Z,46.34
2023-11-24T02:50:23.923Z,46.34
2023-11-24T02:51:23.947Z,46.34
2023-11-24T02:52:23.900Z,46.34
2023-11-24T02:53:23.896Z,46.25
2023-11-24T02:54:23.892Z,46.25
2023-11-24T02:55:23.866Z,46.34
2023-11-24T02:56:23.874Z,46.25
2023-11-24T02:57:23.903Z,46.34
2023-11-24T02:58:23.831Z,46.45
2023-11-24T02:59:23.833Z,46.34
2023-11-24T03:00:23.898Z,46.45
2023-11-24T03:01:23.851Z,46.55
2023-11-24T03:02:23.870Z,46.55
2023-11-24T03:03:23.932Z,46.55
2023-11-24T03:04:23.822Z,46.55
2023-11-24T03:05:23.761Z,46.45
2023-11-24T03:06:23.781Z,46.45
2023-11-24T03:07:23.772Z,46.45
2023-11-24T03:08:23.738Z,46.34
2023-11-24T03:09:23.742Z,46.55
2023-11-24T03:10:23.718Z,46.55
2023-11-24T03:11:23.710Z,46.55
2023-11-24T03:12:23.703Z,46.55
2023-11-24T03:13:23.668Z,46.55
2023-11-24T03:14:23.675Z,46.45
2023-11-24T03:15:23.663Z,46.55
2023-11-24T03:16:23.703Z,46.65
2023-11-24T03:17:23.641Z,46.85
2023-11-24T03:18:23.622Z,46.75
2023-11-24T03:19:23.620Z,46.85
2023-11-24T03:20:23.601Z,46.95
2023-11-24T03:21:23.587Z,46.95
2023-11-24T03:22:23.588Z,47.05
2023-11-24T03:23:23.568Z,47.05
2023-11-24T03:24:23.562Z,47.15
2023-11-24T03:25:23.538Z,47.05
2023-11-24T03:26:23.528Z,46.67
2023-11-24T03:27:23.514Z,46.95
2023-11-24T03:28:23.495Z,46.95
2023-11-24T03:29:23.585Z,46.75
2023-11-24T03:30:23.482Z,46.75
2023-11-24T03:31:23.482Z,46.55
2023-11-24T03:32:23.462Z,46.57
2023-11-24T03:33:23.470Z,46.55
2023-11-24T03:34:23.491Z,46.65
2023-11-24T03:35:23.440Z,46.75
2023-11-24T03:36:23.417Z,46.67
2023-11-24T03:37:23.404Z,46.65
2023-11-24T03:38:23.404Z,46.65
2023-11-24T03:39:23.383Z,46.67
2023-11-24T03:40:23.376Z,46.25
2023-11-24T03:41:23.382Z,46.34
2023-11-24T03:42:23.345Z,46.47
2023-11-24T03:43:23.349Z,46.55
2023-11-24T03:44:23.330Z,46.45
2023-11-24T03:45:23.337Z,46.45
2023-11-24T03:46:23.345Z,46.45
2023-11-24T03:47:23.333Z,46.34
2023-11-24T03:48:23.283Z,46.37
2023-11-24T03:49:23.280Z,46.57
2023-11-24T03:50:23.258Z,46.37
2023-11-24T03:51:23.250Z,46.37
2023-11-24T03:52:23.251Z,46.25
2023-11-24T03:53:23.230Z,46.17
2023-11-24T03:54:23.305Z,46.37
2023-11-24T03:55:23.208Z,46.47
2023-11-24T03:56:23.199Z,46.47
2023-11-24T03:57:23.196Z,46.47
2023-11-24T03:58:23.177Z,46.47
2023-11-24T03:59:23.163Z,46.57
2023-11-24T04:00:23.159Z,46.55
2023-11-24T04:01:23.235Z,46.55
2023-11-24T04:02:23.142Z,46.57
2023-11-24T04:03:23.179Z,46.65
2023-11-24T04:04:23.152Z,46.67
2023-11-24T04:05:23.116Z,46.67
2023-11-24T04:06:23.099Z,46.65
2023-11-24T04:07:23.081Z,46.65
2023-11-24T04:08:23.063Z,46.67
2023-11-24T04:09:23.060Z,46.77
2023-11-24T04:10:23.042Z,46.97
2023-11-24T04:11:23.032Z,46.75
2023-11-24T04:12:23.024Z,46.77
2023-11-24T04:13:23.010Z,46.77
2023-11-24T04:14:23.049Z,46.65
2023-11-24T04:15:22.996Z,46.75
2023-11-24T04:16:23.106Z,46.87
2023-11-24T04:17:22.965Z,46.97
2023-11-24T04:18:22.989Z,46.97
2023-11-24T04:19:22.947Z,46.87
2023-11-24T04:20:22.949Z,46.97
2023-11-24T04:21:22.930Z,46.97
2023-11-24T04:22:22.952Z,46.97
2023-11-24T04:23:22.907Z,46.97
2023-11-24T04:24:22.893Z,46.97
2023-11-24T04:25:22.891Z,46.87
2023-11-24T04:26:22.873Z,46.77
2023-11-24T04:27:22.857Z,46.77
2023-11-24T04:28:22.875Z,46.67
2023-11-24T04:29:22.884Z,46.87
2023-11-24T04:30:22.832Z,46.77
2023-11-24T04:31:22.813Z,46.77
2023-11-24T04:32:22.821Z,46.77
2023-11-24T04:33:22.800Z,46.67
2023-11-24T04:34:22.848Z,46.67
2023-11-24T04:35:22.777Z,46.57
2023-11-24T04:36:22.756Z,46.67
2023-11-24T04:37:22.768Z,46.67
2023-11-24T04:38:22.745Z,46.67
2023-11-24T04:39:22.745Z,46.77
2023-11-24T04:40:22.722Z,46.77
2023-11-24T04:41:22.696Z,46.77
2023-11-24T04:42:22.692Z,46.77
2023-11-24T04:43:22.683Z,46.77
2023-11-24T04:44:22.690Z,46.77
2023-11-24T04:45:22.674Z,46.67
2023-11-24T04:46:22.730Z,46.77
2023-11-24T04:47:22.653Z,46.77
2023-11-24T04:48:22.649Z,46.77
2023-11-24T04:49:22.625Z,46.77
2023-11-24T04:50:22.667Z,46.87
2023-11-24T04:51:22.598Z,46.77
2023-11-24T04:52:22.583Z,46.87
2023-11-24T04:53:22.583Z,46.77
2023-11-24T04:54:22.568Z,46.87
2023-11-24T04:55:22.557Z,46.77
2023-11-24T04:56:22.540Z,46.87
2023-11-24T04:57:22.535Z,46.87
2023-11-24T04:58:22.524Z,46.87
2023-11-24T04:59:22.507Z,46.87
2023-11-24T05:00:22.551Z,46.87
2023-11-24T05:01:22.509Z,46.87
2023-11-24T05:02:22.549Z,46.77
2023-11-24T05:03:22.465Z,46.77
2023-11-24T05:04:22.549Z,46.57
2023-11-24T05:05:22.437Z,46.57
2023-11-24T05:06:22.447Z,46.57
2023-11-24T05:07:22.482Z,46.57
2023-11-24T05:08:22.408Z,46.57
2023-11-24T05:09:22.394Z,46.57
2023-11-24T05:10:22.384Z,46.57
2023-11-24T05:11:22.372Z,46.57
2023-11-24T05:12:22.365Z,46.67
2023-11-24T05:13:22.365Z,46.57
2023-11-24T05:14:22.339Z,46.57
2023-11-24T05:15:22.327Z,46.57
2023-11-24T05:16:22.498Z,46.47
2023-11-24T05:17:22.307Z,46.47
2023-11-24T05:18:22.307Z,46.37
2023-11-24T05:19:22.288Z,46.37
2023-11-24T05:20:22.277Z,46.37
2023-11-24T05:21:22.276Z,46.37
2023-11-24T05:22:22.248Z,46.37
2023-11-24T05:23:22.266Z,46.37
2023-11-24T05:24:22.243Z,46.26
2023-11-24T05:25:22.212Z,46.37
2023-11-24T05:26:22.257Z,46.37
2023-11-24T05:27:22.190Z,46.37
2023-11-24T05:28:22.185Z,46.26
2023-11-24T05:29:22.176Z,46.26
2023-11-24T05:30:22.251Z,46.26
2023-11-24T05:31:22.218Z,46.26
2023-11-24T05:32:22.198Z,46.26
2023-11-24T05:33:22.207Z,46.17
2023-11-24T05:34:22.192Z,46.17
2023-11-24T05:35:22.241Z,46.26
2023-11-24T05:36:22.198Z,46.17
2023-11-24T05:37:22.099Z,46.26
2023-11-24T05:38:22.096Z,46.26
2023-11-24T05:39:22.074Z,46.26
2023-11-24T05:40:22.091Z,46.26
2023-11-24T05:41:22.042Z,46.26
2023-11-24T05:42:22.044Z,46.26
2023-11-24T05:43:22.039Z,46.37
2023-11-24T05:44:22.018Z,46.37
2023-11-24T05:45:22.013Z,46.37
2023-11-24T05:46:22.109Z,46.37
2023-11-24T05:47:21.972Z,46.37
2023-11-24T05:48:21.976Z,46.37
2023-11-24T05:49:21.971Z,46.37
2023-11-24T05:50:21.967Z,46.37
2023-11-24T05:51:21.949Z,46.37
2023-11-24T05:52:21.927Z,46.37
2023-11-24T05:53:21.908Z,46.37
2023-11-24T05:54:21.920Z,46.47
2023-11-24T05:55:21.914Z,46.37
2023-11-24T05:56:21.880Z,46.39
2023-11-24T05:57:21.870Z,46.37
2023-11-24T05:58:21.863Z,46.37
2023-11-24T05:59:21.858Z,46.37
2023-11-24T06:00:21.841Z,46.37
2023-11-24T06:01:21.833Z,46.37
2023-11-24T06:02:21.834Z,46.47
2023-11-24T06:03:21.860Z,46.49
2023-11-24T06:04:21.900Z,46.47
2023-11-24T06:05:21.835Z,46.37
2023-11-24T06:06:21.777Z,46.37
2023-11-24T06:07:21.751Z,46.37
2023-11-24T06:08:21.761Z,46.39
2023-11-24T06:09:21.754Z,46.37
2023-11-24T06:10:21.740Z,46.26
2023-11-24T06:11:21.724Z,46.39
2023-11-24T06:12:21.711Z,46.26
2023-11-24T06:13:21.711Z,46.26
2023-11-24T06:14:21.686Z,46.26
2023-11-24T06:15:21.671Z,46.17
2023-11-24T06:16:21.681Z,46.06
2023-11-24T06:17:21.660Z,46.06
2023-11-24T06:18:21.658Z,46.17
2023-11-24T06:19:21.686Z,46.06
2023-11-24T06:20:21.610Z,46.06
2023-11-24T06:21:21.604Z,46.06
2023-11-24T06:22:21.622Z,46.17
2023-11-24T06:23:21.592Z,46.17
2023-11-24T06:24:21.578Z,46.17
2023-11-24T06:25:21.650Z,46.17
2023-11-24T06:26:21.549Z,46.26
2023-11-24T06:27:21.557Z,46.26
2023-11-24T06:28:21.539Z,46.26
2023-11-24T06:29:21.524Z,46.26
2023-11-24T06:30:21.530Z,46.26
2023-11-24T06:31:21.545Z,46.26
2023-11-24T06:32:21.547Z,46.26
2023-11-24T06:33:21.491Z,46.26
2023-11-24T06:34:21.531Z,46.26
2023-11-24T06:35:21.448Z,46.34
2023-11-24T06:36:21.466Z,46.25
2023-11-24T06:37:21.466Z,46.25
2023-11-24T06:38:21.436Z,46.26
2023-11-24T06:39:21.403Z,46.14
2023-11-24T06:40:21.409Z,46.25
2023-11-24T06:41:21.385Z,46.25
2023-11-24T06:42:21.373Z,46.25
2023-11-24T06:43:21.432Z,46.34
2023-11-24T06:44:21.362Z,46.34
2023-11-24T06:45:23.973Z,46.34
2023-11-24T06:46:21.364Z,46.34
2023-11-24T06:47:21.314Z,46.34
2023-11-24T06:48:21.310Z,46.25
2023-11-24T06:49:21.300Z,46.14
2023-11-24T06:50:21.306Z,46.14
2023-11-24T06:51:21.311Z,46.25
2023-11-24T06:52:21.271Z,46.25
2023-11-24T06:53:21.321Z,46.34
2023-11-24T06:54:21.247Z,46.25
2023-11-24T06:55:21.239Z,46.34
2023-11-24T06:56:21.230Z,46.25
2023-11-24T06:57:21.262Z,46.25
2023-11-24T06:58:21.208Z,46.25
2023-11-24T06:59:21.183Z,46.22
2023-11-24T07:00:21.182Z,46.34
2023-11-24T07:01:21.240Z,46.25
2023-11-24T07:02:21.235Z,46.22
2023-11-24T07:03:21.165Z,46.25
2023-11-24T07:04:21.210Z,46.25
2023-11-24T07:05:21.121Z,46.25
2023-11-24T07:06:21.111Z,46.25
2023-11-24T07:07:21.102Z,46.14
2023-11-24T07:08:21.088Z,46.14
2023-11-24T07:09:21.096Z,46.04
2023-11-24T07:10:21.171Z,46.12
2023-11-24T07:11:21.057Z,46.12
2023-11-24T07:12:21.048Z,46.14
2023-11-24T07:13:21.032Z,46.12
2023-11-24T07:14:21.028Z,46.14
2023-11-24T07:15:21.025Z,46.12
2023-11-24T07:16:21.157Z,46.12
2023-11-24T07:17:20.938Z,46.12
2023-11-24T07:18:20.994Z,46.02
2023-11-24T07:19:21.009Z,46.02
2023-11-24T07:20:20.907Z,46.02
2023-11-24T07:21:20.894Z,46.02
2023-11-24T07:22:20.950Z,46.02
2023-11-24T07:23:20.948Z,46.02
2023-11-24T07:24:20.929Z,45.72
2023-11-24T07:25:20.888Z,45.62
2023-11-24T07:26:20.876Z,45.82
2023-11-24T07:27:20.826Z,45.82
2023-11-24T07:28:20.884Z,45.72
2023-11-24T07:29:20.813Z,45.72
2023-11-24T07:30:20.867Z,45.82
2023-11-24T07:31:20.844Z,45.92
2023-11-24T07:32:20.845Z,45.92
2023-11-24T07:33:20.887Z,46.00
2023-11-24T07:34:20.900Z,46.00
2023-11-24T07:35:20.850Z,45.90
2023-11-24T07:36:20.787Z,46.10
2023-11-24T07:37:20.740Z,46.22
2023-11-24T07:38:20.751Z,46.22
2023-11-24T07:39:20.702Z,46.20
2023-11-24T07:40:20.796Z,46.20
2023-11-24T07:41:20.667Z,46.20
2023-11-24T07:42:20.681Z,46.00
2023-11-24T07:43:20.661Z,46.00
2023-11-24T07:44:20.641Z,46.00
2023-11-24T07:45:20.694Z,46.00
2023-11-24T07:46:20.672Z,46.00
2023-11-24T07:47:20.608Z,45.79
2023-11-24T07:48:20.595Z,45.72
2023-11-24T07:49:20.589Z,45.70
2023-11-24T07:50:20.579Z,45.79
2023-11-24T07:51:20.581Z,45.70
2023-11-24T07:52:20.561Z,45.59
2023-11-24T07:53:20.553Z,45.59
2023-11-24T07:54:20.559Z,45.50
2023-11-24T07:55:20.533Z,45.50
2023-11-24T07:56:20.538Z,45.50
2023-11-24T07:57:20.494Z,45.50
2023-11-24T07:58:20.508Z,45.50
2023-11-24T07:59:20.483Z,45.19
2023-11-24T08:00:20.503Z,45.39
2023-11-24T08:01:20.598Z,45.29
2023-11-24T08:02:20.520Z,45.00
2023-11-24T08:03:20.575Z,45.09
2023-11-24T08:04:20.550Z,45.09
2023-11-24T08:05:20.417Z,45.19
2023-11-24T08:06:20.422Z,45.09
2023-11-24T08:07:20.436Z,45.09
2023-11-24T08:08:20.384Z,44.79
2023-11-24T08:09:20.365Z,44.79
2023-11-24T08:10:20.447Z,44.79
2023-11-24T08:11:20.352Z,44.79
2023-11-24T08:12:20.380Z,44.47
2023-11-24T08:13:20.327Z,44.79
2023-11-24T08:14:20.316Z,45.00
2023-11-24T08:15:20.322Z,45.07
2023-11-24T08:16:20.402Z,45.09
2023-11-24T08:17:20.287Z,44.87
2023-11-24T08:18:20.274Z,44.97
2023-11-24T08:19:20.330Z,45.07
2023-11-24T08:20:20.305Z,45.07
2023-11-24T08:21:20.226Z,45.17
2023-11-24T08:22:20.227Z,45.07
2023-11-24T08:23:20.226Z,45.07
2023-11-24T08:24:20.227Z,44.97
2023-11-24T08:25:20.191Z,45.07
2023-11-24T08:26:20.266Z,44.77
2023-11-24T08:27:20.162Z,44.77
2023-11-24T08:28:20.176Z,44.77
2023-11-24T08:29:20.221Z,44.77
2023-11-24T08:30:20.191Z,44.87
2023-11-24T08:31:20.192Z,44.97
2023-11-24T08:32:20.170Z,44.97
2023-11-24T08:33:20.172Z,44.77
2023-11-24T08:34:20.245Z,44.97
2023-11-24T08:35:20.084Z,45.07
2023-11-24T08:36:20.124Z,45.07
2023-11-24T08:37:20.095Z,44.97
2023-11-24T08:38:20.052Z,44.97
2023-11-24T08:39:20.054Z,44.87
2023-11-24T08:40:20.039Z,44.97
2023-11-24T08:41:30.496Z,44.87
2023-11-24T08:42:20.046Z,44.57
2023-11-24T08:43:20.045Z,44.47
2023-11-24T08:44:19.982Z,44.37
2023-11-24T08:45:20.007Z,44.57
2023-11-24T08:46:20.037Z,44.47
2023-11-24T08:47:19.962Z,44.47
2023-11-24T08:48:19.995Z,44.37
2023-11-24T08:49:20.014Z,44.27
2023-11-24T08:50:19.927Z,44.27
2023-11-24T08:51:19.920Z,44.27
2023-11-24T08:52:19.920Z,43.96
2023-11-24T08:53:19.954Z,44.07
2023-11-24T08:54:19.877Z,43.87
2023-11-24T08:55:19.918Z,43.66
2023-11-24T08:56:19.890Z,43.76
2023-11-24T08:57:19.844Z,43.46
2023-11-24T08:58:19.884Z,43.28
2023-11-24T08:59:19.829Z,43.79
2023-11-24T09:00:19.829Z,43.66
2023-11-24T09:01:20.000Z,44.07
2023-11-24T09:02:19.890Z,44.09
2023-11-24T09:03:19.801Z,44.19
2023-11-24T09:04:19.818Z,43.56
2023-11-24T09:05:19.820Z,43.99
2023-11-24T09:06:19.809Z,43.88
2023-11-24T09:07:19.837Z,43.96
2023-11-24T09:08:20.709Z,43.96
2023-11-24T09:09:19.714Z,43.79
2023-11-24T09:10:19.771Z,43.88
2023-11-24T09:11:19.714Z,43.79
2023-11-24T09:12:19.681Z,43.66
2023-11-24T09:13:19.683Z,43.66
2023-11-24T09:14:19.692Z,43.59
2023-11-24T09:15:19.674Z,43.59
2023-11-24T09:16:19.867Z,43.59
2023-11-24T09:17:19.621Z,43.59
2023-11-24T09:18:19.645Z,43.68
2023-11-24T09:19:19.675Z,43.48
2023-11-24T09:20:19.601Z,43.38
2023-11-24T09:21:19.795Z,43.59
2023-11-24T09:22:19.584Z,43.48
2023-11-24T09:23:19.557Z,43.48
2023-11-24T09:24:19.544Z,43.68
2023-11-24T09:25:19.578Z,43.59
2023-11-24T09:26:19.526Z,43.48
2023-11-24T09:27:19.513Z,43.59
2023-11-24T09:28:19.518Z,43.59
2023-11-24T09:29:19.492Z,43.48
2023-11-24T09:30:19.573Z,43.59
2023-11-24T09:31:19.528Z,43.38
2023-11-24T09:32:19.455Z,43.48
2023-11-24T09:33:19.461Z,43.48
2023-11-24T09:34:19.551Z,43.48
2023-11-24T09:35:19.474Z,43.48
2023-11-24T09:36:19.417Z,43.59
2023-11-24T09:37:19.408Z,43.48
2023-11-24T09:38:19.398Z,43.59
2023-11-24T09:39:19.397Z,43.48
2023-11-24T09:40:19.377Z,43.51
2023-11-24T09:41:19.373Z,43.48
2023-11-24T09:42:20.504Z,43.48
2023-11-24T09:43:19.372Z,43.48
2023-11-24T09:44:19.329Z,43.38
2023-11-24T09:45:19.325Z,43.60
2023-11-24T09:46:19.460Z,43.68
2023-11-24T09:47:19.372Z,43.60
2023-11-24T09:48:19.867Z,43.60
2023-11-24T09:49:19.303Z,43.60
2023-11-24T09:50:19.260Z,43.60
2023-11-24T09:51:19.271Z,43.71
2023-11-24T09:52:19.244Z,43.71
2023-11-24T09:53:19.233Z,43.71
2023-11-24T09:54:19.480Z,43.80
2023-11-24T09:55:19.258Z,43.80
2023-11-24T09:56:19.205Z,43.88
2023-11-24T09:57:19.205Z,43.80
2023-11-24T09:58:19.181Z,43.80
2023-11-24T09:59:19.158Z,43.80
2023-11-24T10:00:19.180Z,43.91
2023-11-24T10:01:19.139Z,43.91
2023-11-24T10:02:19.393Z,44.01
2023-11-24T10:03:19.127Z,43.91
2023-11-24T10:04:19.166Z,43.91
2023-11-24T10:05:19.097Z,43.91
2023-11-24T10:06:19.083Z,43.91
2023-11-24T10:07:19.083Z,43.91
2023-11-24T10:08:19.066Z,43.91
2023-11-24T10:09:19.050Z,43.80
2023-11-24T10:10:19.042Z,43.80
2023-11-24T10:11:19.100Z,43.80
2023-11-24T10:12:19.020Z,43.71
2023-11-24T10:13:19.011Z,43.80
2023-11-24T10:14:19.005Z,43.71
2023-11-24T10:15:18.988Z,43.71
2023-11-24T10:16:19.149Z,43.71
2023-11-24T10:17:19.017Z,43.80
2023-11-24T10:18:18.946Z,43.80
2023-11-24T10:19:22.111Z,43.80
2023-11-24T10:20:18.934Z,43.80
2023-11-24T10:21:27.603Z,43.80
2023-11-24T10:22:18.931Z,43.80
2023-11-24T10:23:18.917Z,43.80
2023-11-24T10:24:18.890Z,43.80
2023-11-24T10:25:18.907Z,43.71
2023-11-24T10:26:18.869Z,43.71
2023-11-24T10:27:18.884Z,43.80
2023-11-24T10:28:18.943Z,43.51
2023-11-24T10:29:18.829Z,43.71
2023-11-24T10:30:18.828Z,43.40
2023-11-24T10:31:18.907Z,43.52
2023-11-24T10:32:18.799Z,43.51
2023-11-24T10:33:34.724Z,43.52
2023-11-24T10:34:18.832Z,43.62
2023-11-24T10:35:18.824Z,43.51
2023-11-24T10:36:18.851Z,43.42
2023-11-24T10:37:18.786Z,43.51
2023-11-24T10:38:18.772Z,43.52
2023-11-24T10:39:18.744Z,43.32
2023-11-24T10:40:18.791Z,43.52
2023-11-24T10:41:18.723Z,43.51
2023-11-24T10:42:18.684Z,43.52
2023-11-24T10:43:18.847Z,43.42
2023-11-24T10:44:18.813Z,43.42
2023-11-24T10:45:18.674Z,43.12
2023-11-24T10:46:18.846Z,43.32
2023-11-24T10:47:18.686Z,43.52
2023-11-24T10:48:18.619Z,43.52
2023-11-24T10:49:18.706Z,43.42
2023-11-24T10:50:18.605Z,43.52
2023-11-24T10:51:18.620Z,43.62
2023-11-24T10:52:18.603Z,43.52
2023-11-24T10:53:18.570Z,43.62
2023-11-24T10:54:18.567Z,43.82
2023-11-24T10:55:18.561Z,43.82
2023-11-24T10:56:18.586Z,43.62
2023-11-24T10:57:18.529Z,43.62
2023-11-24T10:58:18.593Z,43.73
2023-11-24T10:59:18.516Z,43.62
2023-11-24T11:00:18.524Z,43.52
2023-11-24T11:01:18.539Z,43.73
2023-11-24T11:02:18.629Z,43.93
2023-11-24T11:03:18.521Z,43.93
2023-11-24T11:04:18.464Z,43.82
2023-11-24T11:05:18.442Z,43.82
2023-11-24T11:06:18.440Z,43.73
2023-11-24T11:07:18.470Z,43.62
2023-11-24T11:08:18.441Z,43.82
2023-11-24T11:09:18.447Z,43.93
2023-11-24T11:10:18.451Z,43.85
2023-11-24T11:11:18.374Z,43.62
2023-11-24T11:12:18.400Z,43.62
2023-11-24T11:13:18.472Z,43.73
2023-11-24T11:14:18.336Z,43.93
2023-11-24T11:15:18.336Z,43.93
2023-11-24T11:16:18.398Z,43.65
2023-11-24T11:17:18.385Z,43.73
2023-11-24T11:18:18.322Z,43.52
2023-11-24T11:19:18.321Z,43.74
2023-11-24T11:20:18.269Z,43.85
2023-11-24T11:21:18.269Z,43.93
2023-11-24T11:22:18.331Z,43.54
2023-11-24T11:23:18.259Z,43.54
2023-11-24T11:24:18.252Z,43.54
2023-11-24T11:25:18.252Z,43.74
2023-11-24T11:26:18.218Z,43.65
2023-11-24T11:27:18.220Z,43.54
2023-11-24T11:28:18.219Z,43.44
2023-11-24T11:29:18.174Z,43.74
2023-11-24T11:30:18.168Z,43.65
2023-11-24T11:31:18.231Z,43.24
2023-11-24T11:32:18.189Z,43.34
2023-11-24T11:33:18.129Z,43.34
2023-11-24T11:34:18.335Z,43.34
2023-11-24T11:35:18.107Z,43.24
2023-11-24T11:36:18.108Z,43.24
2023-11-24T11:37:18.122Z,43.24
2023-11-24T11:38:18.075Z,43.14
2023-11-24T11:39:18.088Z,43.14
2023-11-24T11:40:18.073Z,43.14
2023-11-24T11:41:18.048Z,43.14
2023-11-24T11:42:18.026Z,43.24
2023-11-24T11:43:18.047Z,43.22
2023-11-24T11:44:18.112Z,43.24
2023-11-24T11:45:18.015Z,43.44
2023-11-24T11:46:18.015Z,43.52
2023-11-24T11:47:17.983Z,43.54
2023-11-24T11:48:17.962Z,43.65
2023-11-24T11:49:17.975Z,43.93
2023-11-24T11:50:17.962Z,43.73
2023-11-24T11:51:17.952Z,43.82
2023-11-24T11:52:18.010Z,44.13
2023-11-24T11:53:17.910Z,44.13
2023-11-24T11:54:17.895Z,43.82
2023-11-24T11:55:18.997Z,43.82
2023-11-24T11:56:17.880Z,43.93
2023-11-24T11:57:17.881Z,43.93
2023-11-24T11:58:17.932Z,43.82
2023-11-24T11:59:17.854Z,43.82
2023-11-24T12:00:17.842Z,43.73
2023-11-24T12:01:17.869Z,43.60
2023-11-24T12:02:19.385Z,43.71
2023-11-24T12:03:17.808Z,43.80
2023-11-24T12:04:17.906Z,43.80
2023-11-24T12:05:17.782Z,43.82
2023-11-24T12:06:17.767Z,43.93
2023-11-24T12:07:17.824Z,43.80
2023-11-24T12:08:17.741Z,43.80
2023-11-24T12:09:17.736Z,43.80
2023-11-24T12:10:17.742Z,43.80
2023-11-24T12:11:17.712Z,43.71
2023-11-24T12:12:17.699Z,43.60
2023-11-24T12:13:17.740Z,43.73
2023-11-24T12:14:17.680Z,43.60
2023-11-24T12:15:17.670Z,43.51
2023-11-24T12:16:17.742Z,43.51
2023-11-24T12:17:17.684Z,43.42
2023-11-24T12:18:17.783Z,43.51
2023-11-24T12:19:17.660Z,43.40
2023-11-24T12:20:17.613Z,43.51
2023-11-24T12:21:17.617Z,43.51
2023-11-24T12:22:17.644Z,43.51
2023-11-24T12:23:17.631Z,43.30
2023-11-24T12:24:17.597Z,43.40
2023-11-24T12:25:17.644Z,43.20
2023-11-24T12:26:17.548Z,43.30
2023-11-24T12:27:17.537Z,43.30
2023-11-24T12:28:17.575Z,43.40
2023-11-24T12:29:17.516Z,43.40
2023-11-24T12:30:17.523Z,43.40
2023-11-24T12:31:17.561Z,43.30
2023-11-24T12:32:17.572Z,43.30
2023-11-24T12:33:17.509Z,43.20
2023-11-24T12:34:17.488Z,43.10
2023-11-24T12:35:17.452Z,43.30
2023-11-24T12:36:17.447Z,43.00
2023-11-24T12:37:17.525Z,43.10
2023-11-24T12:38:17.413Z,43.00
2023-11-24T12:39:17.440Z,43.00
2023-11-24T12:40:17.508Z,43.30
2023-11-24T12:41:17.388Z,43.00
2023-11-24T12:42:17.374Z,43.00
2023-11-24T12:43:17.374Z,43.00
2023-11-24T12:44:17.410Z,43.10
2023-11-24T12:45:17.384Z,43.30
2023-11-24T12:46:17.395Z,43.30
2023-11-24T12:47:17.333Z,43.20
2023-11-24T12:48:17.359Z,43.20
2023-11-24T12:49:17.299Z,43.30
2023-11-24T12:50:17.293Z,43.30
2023-11-24T12:51:17.282Z,43.30
2023-11-24T12:52:17.304Z,43.20